sensor_id;sensor_type;location;lat;lon;timestamp;P1;durP1;ratioP1;P2;durP2;ratioP2
7074;SDS011;3578;51.568;6.932;2023-07-16T00:01:18;4.77;;;3.63;;
7074;SDS011;3578;51.568;6.932;2023-07-16T00:03:45;4.67;;;3.03;;
7074;SDS011;3578;51.568;6.932;2023-07-16T00:06:12;3.63;;;3.27;;
7074;SDS011;3578;51.568;6.932;2023-07-16T00:08:40;4.20;;;2.93;;
7074;SDS011;3578;51.568;6.932;2023-07-16T00:11:07;3.27;;;2.97;;
7074;SDS011;3578;51.568;6.932;2023-07-16T00:13:34;3.97;;;2.83;;
7074;SDS011;3578;51.568;6.932;2023-07-16T00:16:01;3.53;;;2.87;;
7074;SDS011;3578;51.568;6.932;2023-07-16T00:18:28;4.40;;;2.80;;
7074;SDS011;3578;51.568;6.932;2023-07-16T00:20:55;6.43;;;3.13;;
7074;SDS011;3578;51.568;6.932;2023-07-16T00:23:23;6.20;;;3.90;;
7074;SDS011;3578;51.568;6.932;2023-07-16T00:25:50;5.27;;;3.67;;
7074;SDS011;3578;51.568;6.932;2023-07-16T00:28:18;9.50;;;4.00;;
7074;SDS011;3578;51.568;6.932;2023-07-16T00:30:45;10.17;;;3.03;;
7074;SDS011;3578;51.568;6.932;2023-07-16T00:33:12;6.30;;;3.53;;
7074;SDS011;3578;51.568;6.932;2023-07-16T00:35:39;5.80;;;3.37;;
7074;SDS011;3578;51.568;6.932;2023-07-16T00:38:12;3.73;;;3.10;;
7074;SDS011;3578;51.568;6.932;2023-07-16T00:40:39;5.30;;;3.20;;
7074;SDS011;3578;51.568;6.932;2023-07-16T00:43:06;3.93;;;3.20;;
7074;SDS011;3578;51.568;6.932;2023-07-16T00:45:34;6.63;;;3.00;;
7074;SDS011;3578;51.568;6.932;2023-07-16T00:48:02;6.97;;;3.30;;
7074;SDS011;3578;51.568;6.932;2023-07-16T00:50:31;4.60;;;3.13;;
7074;SDS011;3578;51.568;6.932;2023-07-16T00:52:59;5.40;;;2.70;;
7074;SDS011;3578;51.568;6.932;2023-07-16T00:55:26;4.07;;;2.90;;
7074;SDS011;3578;51.568;6.932;2023-07-16T00:57:56;3.47;;;2.97;;
7074;SDS011;3578;51.568;6.932;2023-07-16T01:00:27;11.00;;;2.77;;
7074;SDS011;3578;51.568;6.932;2023-07-16T01:02:56;4.40;;;3.00;;
7074;SDS011;3578;51.568;6.932;2023-07-16T01:05:23;3.87;;;2.73;;
7074;SDS011;3578;51.568;6.932;2023-07-16T01:07:57;6.53;;;2.97;;
7074;SDS011;3578;51.568;6.932;2023-07-16T01:10:28;3.57;;;2.90;;
7074;SDS011;3578;51.568;6.932;2023-07-16T01:12:57;3.03;;;2.83;;
7074;SDS011;3578;51.568;6.932;2023-07-16T01:15:24;10.30;;;3.50;;
7074;SDS011;3578;51.568;6.932;2023-07-16T01:17:51;4.87;;;3.60;;
7074;SDS011;3578;51.568;6.932;2023-07-16T01:20:19;9.83;;;3.80;;
7074;SDS011;3578;51.568;6.932;2023-07-16T01:22:54;3.40;;;3.10;;
7074;SDS011;3578;51.568;6.932;2023-07-16T01:25:56;8.23;;;3.50;;
7074;SDS011;3578;51.568;6.932;2023-07-16T01:28:53;5.43;;;3.40;;
7074;SDS011;3578;51.568;6.932;2023-07-16T01:31:53;7.50;;;3.83;;
7074;SDS011;3578;51.568;6.932;2023-07-16T01:34:23;5.43;;;4.13;;
7074;SDS011;3578;51.568;6.932;2023-07-16T01:36:52;6.60;;;3.80;;
7074;SDS011;3578;51.568;6.932;2023-07-16T01:39:19;4.23;;;3.83;;
7074;SDS011;3578;51.568;6.932;2023-07-16T01:41:49;9.87;;;4.40;;
7074;SDS011;3578;51.568;6.932;2023-07-16T01:44:18;4.93;;;3.90;;
7074;SDS011;3578;51.568;6.932;2023-07-16T01:46:45;4.20;;;3.83;;
7074;SDS011;3578;51.568;6.932;2023-07-16T01:49:23;7.90;;;4.47;;
7074;SDS011;3578;51.568;6.932;2023-07-16T01:51:50;5.33;;;3.87;;
7074;SDS011;3578;51.568;6.932;2023-07-16T01:54:18;4.93;;;4.40;;
7074;SDS011;3578;51.568;6.932;2023-07-16T01:56:45;11.33;;;4.10;;
7074;SDS011;3578;51.568;6.932;2023-07-16T01:59:12;4.90;;;3.90;;
7074;SDS011;3578;51.568;6.932;2023-07-16T02:01:40;3.90;;;3.60;;
7074;SDS011;3578;51.568;6.932;2023-07-16T02:04:07;4.47;;;4.07;;
7074;SDS011;3578;51.568;6.932;2023-07-16T02:06:34;4.80;;;4.30;;
7074;SDS011;3578;51.568;6.932;2023-07-16T02:09:01;4.97;;;3.90;;
7074;SDS011;3578;51.568;6.932;2023-07-16T02:11:28;5.97;;;4.23;;
7074;SDS011;3578;51.568;6.932;2023-07-16T02:13:55;8.37;;;4.57;;
7074;SDS011;3578;51.568;6.932;2023-07-16T02:16:23;6.07;;;4.63;;
7074;SDS011;3578;51.568;6.932;2023-07-16T02:18:51;7.13;;;5.00;;
7074;SDS011;3578;51.568;6.932;2023-07-16T02:21:18;5.97;;;4.20;;
7074;SDS011;3578;51.568;6.932;2023-07-16T02:23:45;8.53;;;5.27;;
7074;SDS011;3578;51.568;6.932;2023-07-16T02:26:12;6.50;;;4.40;;
7074;SDS011;3578;51.568;6.932;2023-07-16T02:28:39;12.00;;;4.60;;
7074;SDS011;3578;51.568;6.932;2023-07-16T02:31:06;6.17;;;4.30;;
7074;SDS011;3578;51.568;6.932;2023-07-16T02:33:33;7.80;;;4.57;;
7074;SDS011;3578;51.568;6.932;2023-07-16T02:36:01;6.80;;;5.17;;
7074;SDS011;3578;51.568;6.932;2023-07-16T02:38:28;5.90;;;3.97;;
7074;SDS011;3578;51.568;6.932;2023-07-16T02:40:55;6.70;;;4.07;;
7074;SDS011;3578;51.568;6.932;2023-07-16T02:43:22;9.83;;;5.00;;
7074;SDS011;3578;51.568;6.932;2023-07-16T02:45:49;9.03;;;4.93;;
7074;SDS011;3578;51.568;6.932;2023-07-16T02:48:16;6.30;;;4.33;;
7074;SDS011;3578;51.568;6.932;2023-07-16T02:50:44;5.77;;;4.60;;
7074;SDS011;3578;51.568;6.932;2023-07-16T02:53:14;5.80;;;4.73;;
7074;SDS011;3578;51.568;6.932;2023-07-16T02:55:41;7.17;;;4.40;;
7074;SDS011;3578;51.568;6.932;2023-07-16T02:58:08;7.50;;;4.40;;
7074;SDS011;3578;51.568;6.932;2023-07-16T03:00:35;5.47;;;4.03;;
7074;SDS011;3578;51.568;6.932;2023-07-16T03:03:02;12.20;;;4.67;;
7074;SDS011;3578;51.568;6.932;2023-07-16T03:05:29;9.03;;;4.40;;
7074;SDS011;3578;51.568;6.932;2023-07-16T03:07:55;5.40;;;4.00;;
7074;SDS011;3578;51.568;6.932;2023-07-16T03:10:24;7.43;;;4.97;;
7074;SDS011;3578;51.568;6.932;2023-07-16T03:12:51;8.00;;;4.10;;
7074;SDS011;3578;51.568;6.932;2023-07-16T03:15:18;10.70;;;4.10;;
7074;SDS011;3578;51.568;6.932;2023-07-16T03:17:45;6.40;;;3.60;;
7074;SDS011;3578;51.568;6.932;2023-07-16T03:20:12;6.17;;;3.63;;
7074;SDS011;3578;51.568;6.932;2023-07-16T03:22:40;3.90;;;3.37;;
7074;SDS011;3578;51.568;6.932;2023-07-16T03:25:07;5.77;;;3.83;;
7074;SDS011;3578;51.568;6.932;2023-07-16T03:27:36;7.17;;;3.77;;
7074;SDS011;3578;51.568;6.932;2023-07-16T03:30:03;8.60;;;4.63;;
7074;SDS011;3578;51.568;6.932;2023-07-16T03:32:31;9.43;;;3.63;;
7074;SDS011;3578;51.568;6.932;2023-07-16T03:34:58;4.03;;;3.37;;
7074;SDS011;3578;51.568;6.932;2023-07-16T03:37:25;6.50;;;3.53;;
7074;SDS011;3578;51.568;6.932;2023-07-16T03:39:52;4.20;;;3.30;;
7074;SDS011;3578;51.568;6.932;2023-07-16T03:42:19;4.50;;;3.60;;
7074;SDS011;3578;51.568;6.932;2023-07-16T03:44:48;8.37;;;3.93;;
7074;SDS011;3578;51.568;6.932;2023-07-16T03:47:15;4.93;;;2.73;;
7074;SDS011;3578;51.568;6.932;2023-07-16T03:49:42;6.97;;;3.97;;
7074;SDS011;3578;51.568;6.932;2023-07-16T03:52:09;6.53;;;4.10;;
7074;SDS011;3578;51.568;6.932;2023-07-16T03:54:36;7.23;;;3.90;;
7074;SDS011;3578;51.568;6.932;2023-07-16T03:57:03;7.83;;;3.70;;
7074;SDS011;3578;51.568;6.932;2023-07-16T03:59:31;5.90;;;3.60;;
7074;SDS011;3578;51.568;6.932;2023-07-16T04:02:00;5.33;;;3.83;;
7074;SDS011;3578;51.568;6.932;2023-07-16T04:04:26;8.90;;;4.10;;
7074;SDS011;3578;51.568;6.932;2023-07-16T04:06:53;6.40;;;3.43;;
7074;SDS011;3578;51.568;6.932;2023-07-16T04:09:21;6.10;;;3.97;;
7074;SDS011;3578;51.568;6.932;2023-07-16T04:11:48;5.93;;;4.00;;
7074;SDS011;3578;51.568;6.932;2023-07-16T04:14:15;3.47;;;3.17;;
7074;SDS011;3578;51.568;6.932;2023-07-16T04:16:42;9.10;;;3.90;;
7074;SDS011;3578;51.568;6.932;2023-07-16T04:19:10;4.40;;;3.87;;
7074;SDS011;3578;51.568;6.932;2023-07-16T04:21:38;5.20;;;3.60;;
7074;SDS011;3578;51.568;6.932;2023-07-16T04:24:05;9.67;;;4.47;;
7074;SDS011;3578;51.568;6.932;2023-07-16T04:26:32;7.00;;;3.97;;
7074;SDS011;3578;51.568;6.932;2023-07-16T04:28:59;6.67;;;3.17;;
7074;SDS011;3578;51.568;6.932;2023-07-16T04:31:26;7.43;;;3.27;;
7074;SDS011;3578;51.568;6.932;2023-07-16T04:33:53;6.00;;;3.57;;
7074;SDS011;3578;51.568;6.932;2023-07-16T04:36:22;3.70;;;3.37;;
7074;SDS011;3578;51.568;6.932;2023-07-16T04:38:49;6.03;;;4.07;;
7074;SDS011;3578;51.568;6.932;2023-07-16T04:41:16;8.53;;;3.73;;
7074;SDS011;3578;51.568;6.932;2023-07-16T04:43:43;10.13;;;4.00;;
7074;SDS011;3578;51.568;6.932;2023-07-16T04:46:10;6.83;;;4.40;;
7074;SDS011;3578;51.568;6.932;2023-07-16T04:48:37;9.70;;;4.10;;
7074;SDS011;3578;51.568;6.932;2023-07-16T04:51:04;7.37;;;4.17;;
7074;SDS011;3578;51.568;6.932;2023-07-16T04:53:32;10.50;;;4.90;;
7074;SDS011;3578;51.568;6.932;2023-07-16T04:55:59;8.97;;;4.10;;
7074;SDS011;3578;51.568;6.932;2023-07-16T04:58:26;6.30;;;4.23;;
7074;SDS011;3578;51.568;6.932;2023-07-16T05:00:53;9.17;;;4.80;;
7074;SDS011;3578;51.568;6.932;2023-07-16T05:03:20;6.00;;;4.00;;
7074;SDS011;3578;51.568;6.932;2023-07-16T05:05:47;5.70;;;4.27;;
7074;SDS011;3578;51.568;6.932;2023-07-16T05:08:13;9.63;;;4.17;;
7074;SDS011;3578;51.568;6.932;2023-07-16T05:10:42;5.13;;;3.80;;
7074;SDS011;3578;51.568;6.932;2023-07-16T05:13:09;4.10;;;3.27;;
7074;SDS011;3578;51.568;6.932;2023-07-16T05:15:36;6.90;;;4.83;;
7074;SDS011;3578;51.568;6.932;2023-07-16T05:18:04;8.80;;;4.00;;
7074;SDS011;3578;51.568;6.932;2023-07-16T05:20:31;8.40;;;3.93;;
7074;SDS011;3578;51.568;6.932;2023-07-16T05:22:58;8.50;;;4.30;;
7074;SDS011;3578;51.568;6.932;2023-07-16T05:25:25;7.27;;;3.83;;
7074;SDS011;3578;51.568;6.932;2023-07-16T05:27:54;10.57;;;4.40;;
7074;SDS011;3578;51.568;6.932;2023-07-16T05:30:21;6.90;;;4.80;;
7074;SDS011;3578;51.568;6.932;2023-07-16T05:32:48;9.63;;;4.60;;
7074;SDS011;3578;51.568;6.932;2023-07-16T05:35:15;10.00;;;3.67;;
7074;SDS011;3578;51.568;6.932;2023-07-16T05:37:42;7.50;;;3.93;;
7074;SDS011;3578;51.568;6.932;2023-07-16T05:40:09;9.43;;;4.07;;
7074;SDS011;3578;51.568;6.932;2023-07-16T05:42:37;6.10;;;3.57;;
7074;SDS011;3578;51.568;6.932;2023-07-16T05:45:06;7.30;;;4.60;;
7074;SDS011;3578;51.568;6.932;2023-07-16T05:47:33;9.70;;;3.43;;
7074;SDS011;3578;51.568;6.932;2023-07-16T05:50:01;8.70;;;4.17;;
7074;SDS011;3578;51.568;6.932;2023-07-16T05:52:28;11.43;;;4.73;;
7074;SDS011;3578;51.568;6.932;2023-07-16T05:54:55;5.10;;;3.40;;
7074;SDS011;3578;51.568;6.932;2023-07-16T05:57:22;14.27;;;4.20;;
7074;SDS011;3578;51.568;6.932;2023-07-16T05:59:49;5.63;;;4.10;;
7074;SDS011;3578;51.568;6.932;2023-07-16T06:02:17;11.00;;;3.80;;
7074;SDS011;3578;51.568;6.932;2023-07-16T06:04:44;8.87;;;4.70;;
7074;SDS011;3578;51.568;6.932;2023-07-16T06:07:12;12.53;;;4.57;;
7074;SDS011;3578;51.568;6.932;2023-07-16T06:09:39;14.43;;;4.90;;
7074;SDS011;3578;51.568;6.932;2023-07-16T06:12:06;5.80;;;3.90;;
7074;SDS011;3578;51.568;6.932;2023-07-16T06:14:33;11.50;;;4.60;;
7074;SDS011;3578;51.568;6.932;2023-07-16T06:17:00;6.63;;;3.90;;
7074;SDS011;3578;51.568;6.932;2023-07-16T06:19:29;7.30;;;4.40;;
7074;SDS011;3578;51.568;6.932;2023-07-16T06:21:56;11.10;;;4.30;;
7074;SDS011;3578;51.568;6.932;2023-07-16T06:24:23;10.43;;;5.17;;
7074;SDS011;3578;51.568;6.932;2023-07-16T06:26:50;8.90;;;4.90;;
7074;SDS011;3578;51.568;6.932;2023-07-16T06:29:17;11.13;;;5.53;;
7074;SDS011;3578;51.568;6.932;2023-07-16T06:31:53;11.93;;;5.00;;
7074;SDS011;3578;51.568;6.932;2023-07-16T06:34:21;19.93;;;5.10;;
7074;SDS011;3578;51.568;6.932;2023-07-16T06:36:50;23.27;;;5.00;;
7074;SDS011;3578;51.568;6.932;2023-07-16T06:39:17;13.23;;;4.50;;
7074;SDS011;3578;51.568;6.932;2023-07-16T06:41:44;10.97;;;4.67;;
7074;SDS011;3578;51.568;6.932;2023-07-16T06:44:11;9.43;;;5.40;;
7074;SDS011;3578;51.568;6.932;2023-07-16T06:46:38;12.17;;;5.00;;
7074;SDS011;3578;51.568;6.932;2023-07-16T06:49:05;6.27;;;4.50;;
7074;SDS011;3578;51.568;6.932;2023-07-16T06:51:32;9.37;;;4.60;;
7074;SDS011;3578;51.568;6.932;2023-07-16T06:54:01;5.63;;;4.10;;
7074;SDS011;3578;51.568;6.932;2023-07-16T06:56:28;5.90;;;4.60;;
7074;SDS011;3578;51.568;6.932;2023-07-16T06:58:55;11.50;;;5.43;;
7074;SDS011;3578;51.568;6.932;2023-07-16T07:01:22;6.73;;;4.33;;
7074;SDS011;3578;51.568;6.932;2023-07-16T07:03:49;9.83;;;4.70;;
7074;SDS011;3578;51.568;6.932;2023-07-16T07:06:16;15.00;;;5.37;;
7074;SDS011;3578;51.568;6.932;2023-07-16T07:08:43;10.67;;;5.47;;
7074;SDS011;3578;51.568;6.932;2023-07-16T07:11:11;13.53;;;5.80;;
7074;SDS011;3578;51.568;6.932;2023-07-16T07:13:38;11.13;;;4.63;;
7074;SDS011;3578;51.568;6.932;2023-07-16T07:16:05;9.73;;;4.90;;
7074;SDS011;3578;51.568;6.932;2023-07-16T07:18:32;7.47;;;4.97;;
7074;SDS011;3578;51.568;6.932;2023-07-16T07:20:59;6.33;;;4.87;;
7074;SDS011;3578;51.568;6.932;2023-07-16T07:23:26;11.83;;;6.03;;
7074;SDS011;3578;51.568;6.932;2023-07-16T07:25:53;10.93;;;5.40;;
7074;SDS011;3578;51.568;6.932;2023-07-16T07:28:22;11.23;;;5.33;;
7074;SDS011;3578;51.568;6.932;2023-07-16T07:30:49;8.00;;;4.70;;
7074;SDS011;3578;51.568;6.932;2023-07-16T07:33:16;7.17;;;4.67;;
7074;SDS011;3578;51.568;6.932;2023-07-16T07:35:43;7.20;;;4.93;;
7074;SDS011;3578;51.568;6.932;2023-07-16T07:38:09;10.60;;;4.90;;
7074;SDS011;3578;51.568;6.932;2023-07-16T07:40:37;8.37;;;5.20;;
7074;SDS011;3578;51.568;6.932;2023-07-16T07:43:03;9.90;;;5.50;;
7074;SDS011;3578;51.568;6.932;2023-07-16T07:45:32;10.40;;;4.70;;
7074;SDS011;3578;51.568;6.932;2023-07-16T07:47:59;12.17;;;5.80;;
7074;SDS011;3578;51.568;6.932;2023-07-16T07:50:26;10.67;;;5.00;;
7074;SDS011;3578;51.568;6.932;2023-07-16T07:52:54;6.17;;;4.40;;
7074;SDS011;3578;51.568;6.932;2023-07-16T07:55:21;9.13;;;5.73;;
7074;SDS011;3578;51.568;6.932;2023-07-16T07:57:49;10.53;;;4.70;;
7074;SDS011;3578;51.568;6.932;2023-07-16T08:00:16;7.70;;;4.90;;
7074;SDS011;3578;51.568;6.932;2023-07-16T08:02:44;5.60;;;4.43;;
7074;SDS011;3578;51.568;6.932;2023-07-16T08:05:11;7.67;;;4.60;;
7074;SDS011;3578;51.568;6.932;2023-07-16T08:07:38;7.70;;;4.47;;
7074;SDS011;3578;51.568;6.932;2023-07-16T08:10:05;7.13;;;4.63;;
7074;SDS011;3578;51.568;6.932;2023-07-16T08:12:33;7.33;;;4.77;;
7074;SDS011;3578;51.568;6.932;2023-07-16T08:15:00;11.33;;;5.10;;
7074;SDS011;3578;51.568;6.932;2023-07-16T08:17:27;8.23;;;5.30;;
7074;SDS011;3578;51.568;6.932;2023-07-16T08:19:55;7.77;;;5.20;;
7074;SDS011;3578;51.568;6.932;2023-07-16T08:22:22;7.53;;;5.07;;
7074;SDS011;3578;51.568;6.932;2023-07-16T08:24:50;8.30;;;5.20;;
7074;SDS011;3578;51.568;6.932;2023-07-16T08:27:17;11.67;;;4.73;;
7074;SDS011;3578;51.568;6.932;2023-07-16T08:29:44;10.13;;;5.70;;
7074;SDS011;3578;51.568;6.932;2023-07-16T08:32:11;7.40;;;5.30;;
7074;SDS011;3578;51.568;6.932;2023-07-16T08:34:38;8.70;;;5.90;;
7074;SDS011;3578;51.568;6.932;2023-07-16T08:37:06;5.63;;;4.70;;
7074;SDS011;3578;51.568;6.932;2023-07-16T08:39:33;7.47;;;5.10;;
7074;SDS011;3578;51.568;6.932;2023-07-16T08:42:00;10.43;;;4.60;;
7074;SDS011;3578;51.568;6.932;2023-07-16T08:44:28;5.17;;;4.20;;
7074;SDS011;3578;51.568;6.932;2023-07-16T08:46:56;9.13;;;5.30;;
7074;SDS011;3578;51.568;6.932;2023-07-16T08:49:23;7.07;;;4.63;;
7074;SDS011;3578;51.568;6.932;2023-07-16T08:51:56;8.93;;;5.30;;
7074;SDS011;3578;51.568;6.932;2023-07-16T08:54:24;6.07;;;4.13;;
7074;SDS011;3578;51.568;6.932;2023-07-16T08:56:51;7.97;;;5.10;;
7074;SDS011;3578;51.568;6.932;2023-07-16T08:59:19;13.53;;;6.10;;
7074;SDS011;3578;51.568;6.932;2023-07-16T09:01:47;11.00;;;5.47;;
7074;SDS011;3578;51.568;6.932;2023-07-16T09:04:14;8.53;;;4.73;;
7074;SDS011;3578;51.568;6.932;2023-07-16T09:06:41;10.77;;;5.07;;
7074;SDS011;3578;51.568;6.932;2023-07-16T09:09:08;10.67;;;4.87;;
7074;SDS011;3578;51.568;6.932;2023-07-16T09:11:47;8.07;;;4.87;;
7074;SDS011;3578;51.568;6.932;2023-07-16T09:14:15;9.20;;;4.40;;
7074;SDS011;3578;51.568;6.932;2023-07-16T09:16:47;9.10;;;4.30;;
7074;SDS011;3578;51.568;6.932;2023-07-16T09:19:15;8.67;;;4.50;;
7074;SDS011;3578;51.568;6.932;2023-07-16T09:21:45;9.37;;;4.40;;
7074;SDS011;3578;51.568;6.932;2023-07-16T09:24:13;6.90;;;4.70;;
7074;SDS011;3578;51.568;6.932;2023-07-16T09:26:48;7.97;;;5.17;;
7074;SDS011;3578;51.568;6.932;2023-07-16T09:29:15;20.20;;;5.03;;
7074;SDS011;3578;51.568;6.932;2023-07-16T09:31:54;9.27;;;5.27;;
7074;SDS011;3578;51.568;6.932;2023-07-16T09:34:23;13.10;;;4.77;;
7074;SDS011;3578;51.568;6.932;2023-07-16T09:36:53;11.20;;;4.30;;
7074;SDS011;3578;51.568;6.932;2023-07-16T09:39:20;9.47;;;4.53;;
7074;SDS011;3578;51.568;6.932;2023-07-16T09:41:50;7.37;;;3.70;;
7074;SDS011;3578;51.568;6.932;2023-07-16T09:44:18;12.67;;;4.53;;
7074;SDS011;3578;51.568;6.932;2023-07-16T09:46:46;7.77;;;4.20;;
7074;SDS011;3578;51.568;6.932;2023-07-16T09:49:14;8.03;;;4.20;;
7074;SDS011;3578;51.568;6.932;2023-07-16T09:51:42;6.47;;;4.20;;
7074;SDS011;3578;51.568;6.932;2023-07-16T09:54:12;6.77;;;4.50;;
7074;SDS011;3578;51.568;6.932;2023-07-16T09:56:41;6.23;;;4.80;;
7074;SDS011;3578;51.568;6.932;2023-07-16T09:59:14;5.53;;;4.40;;
7074;SDS011;3578;51.568;6.932;2023-07-16T10:01:44;10.70;;;4.80;;
7074;SDS011;3578;51.568;6.932;2023-07-16T10:04:14;7.23;;;4.33;;
7074;SDS011;3578;51.568;6.932;2023-07-16T10:06:52;6.13;;;4.13;;
7074;SDS011;3578;51.568;6.932;2023-07-16T10:09:37;15.53;;;4.77;;
7074;SDS011;3578;51.568;6.932;2023-07-16T10:12:07;7.83;;;4.60;;
7074;SDS011;3578;51.568;6.932;2023-07-16T10:14:44;5.73;;;3.70;;
7074;SDS011;3578;51.568;6.932;2023-07-16T10:17:13;6.47;;;4.07;;
7074;SDS011;3578;51.568;6.932;2023-07-16T10:19:51;7.50;;;3.73;;
7074;SDS011;3578;51.568;6.932;2023-07-16T10:22:37;7.90;;;4.40;;
7074;SDS011;3578;51.568;6.932;2023-07-16T10:25:07;8.33;;;4.90;;
7074;SDS011;3578;51.568;6.932;2023-07-16T10:27:36;7.27;;;4.77;;
7074;SDS011;3578;51.568;6.932;2023-07-16T10:30:05;6.90;;;3.60;;
7074;SDS011;3578;51.568;6.932;2023-07-16T10:32:33;7.90;;;3.70;;
7074;SDS011;3578;51.568;6.932;2023-07-16T10:35:00;8.60;;;4.10;;
7074;SDS011;3578;51.568;6.932;2023-07-16T10:37:28;4.37;;;3.90;;
7074;SDS011;3578;51.568;6.932;2023-07-16T10:39:56;5.87;;;4.00;;
7074;SDS011;3578;51.568;6.932;2023-07-16T10:42:26;8.23;;;4.03;;
7074;SDS011;3578;51.568;6.932;2023-07-16T10:44:54;6.20;;;3.50;;
7074;SDS011;3578;51.568;6.932;2023-07-16T10:47:28;4.10;;;3.43;;
7074;SDS011;3578;51.568;6.932;2023-07-16T10:49:57;10.03;;;3.97;;
7074;SDS011;3578;51.568;6.932;2023-07-16T10:52:24;7.53;;;3.90;;
7074;SDS011;3578;51.568;6.932;2023-07-16T10:54:52;4.47;;;3.53;;
7074;SDS011;3578;51.568;6.932;2023-07-16T10:57:19;8.00;;;3.50;;
7074;SDS011;3578;51.568;6.932;2023-07-16T10:59:47;7.30;;;3.67;;
7074;SDS011;3578;51.568;6.932;2023-07-16T11:02:16;3.77;;;3.43;;
7074;SDS011;3578;51.568;6.932;2023-07-16T11:04:45;8.23;;;4.10;;
7074;SDS011;3578;51.568;6.932;2023-07-16T11:07:14;4.70;;;3.70;;
7074;SDS011;3578;51.568;6.932;2023-07-16T11:09:41;5.40;;;4.37;;
7074;SDS011;3578;51.568;6.932;2023-07-16T11:12:10;11.67;;;4.20;;
7074;SDS011;3578;51.568;6.932;2023-07-16T11:14:41;7.60;;;3.80;;
7074;SDS011;3578;51.568;6.932;2023-07-16T11:17:10;6.73;;;4.17;;
7074;SDS011;3578;51.568;6.932;2023-07-16T11:19:37;5.23;;;4.10;;
7074;SDS011;3578;51.568;6.932;2023-07-16T11:22:07;5.97;;;3.80;;
7074;SDS011;3578;51.568;6.932;2023-07-16T11:24:37;8.60;;;4.30;;
7074;SDS011;3578;51.568;6.932;2023-07-16T11:27:06;5.63;;;4.07;;
7074;SDS011;3578;51.568;6.932;2023-07-16T11:29:39;6.10;;;4.57;;
7074;SDS011;3578;51.568;6.932;2023-07-16T11:32:10;4.90;;;4.27;;
7074;SDS011;3578;51.568;6.932;2023-07-16T11:34:37;10.63;;;4.60;;
7074;SDS011;3578;51.568;6.932;2023-07-16T11:37:18;5.03;;;3.43;;
7074;SDS011;3578;51.568;6.932;2023-07-16T11:39:46;5.40;;;4.10;;
7074;SDS011;3578;51.568;6.932;2023-07-16T11:42:14;4.83;;;3.97;;
7074;SDS011;3578;51.568;6.932;2023-07-16T11:44:48;7.00;;;4.33;;
7074;SDS011;3578;51.568;6.932;2023-07-16T11:47:16;6.00;;;4.30;;
7074;SDS011;3578;51.568;6.932;2023-07-16T11:49:43;5.80;;;4.10;;
7074;SDS011;3578;51.568;6.932;2023-07-16T11:52:10;7.83;;;4.23;;
7074;SDS011;3578;51.568;6.932;2023-07-16T11:54:38;8.57;;;4.40;;
7074;SDS011;3578;51.568;6.932;2023-07-16T11:57:05;6.60;;;3.80;;
7074;SDS011;3578;51.568;6.932;2023-07-16T11:59:32;9.83;;;3.90;;
7074;SDS011;3578;51.568;6.932;2023-07-16T12:01:59;9.73;;;4.00;;
7074;SDS011;3578;51.568;6.932;2023-07-16T12:04:26;4.73;;;3.60;;
7074;SDS011;3578;51.568;6.932;2023-07-16T12:06:53;6.93;;;4.30;;
7074;SDS011;3578;51.568;6.932;2023-07-16T12:09:20;5.13;;;3.50;;
7074;SDS011;3578;51.568;6.932;2023-07-16T12:11:49;5.30;;;3.60;;
7074;SDS011;3578;51.568;6.932;2023-07-16T12:14:15;4.90;;;4.20;;
7074;SDS011;3578;51.568;6.932;2023-07-16T12:16:42;5.47;;;4.13;;
7074;SDS011;3578;51.568;6.932;2023-07-16T12:19:09;5.17;;;3.93;;
7074;SDS011;3578;51.568;6.932;2023-07-16T12:21:36;5.30;;;4.00;;
7074;SDS011;3578;51.568;6.932;2023-07-16T12:24:04;4.70;;;3.47;;
7074;SDS011;3578;51.568;6.932;2023-07-16T12:26:31;5.40;;;3.83;;
7074;SDS011;3578;51.568;6.932;2023-07-16T12:29:00;6.10;;;3.80;;
7074;SDS011;3578;51.568;6.932;2023-07-16T12:31:29;5.13;;;3.83;;
7074;SDS011;3578;51.568;6.932;2023-07-16T12:33:57;6.27;;;4.00;;
7074;SDS011;3578;51.568;6.932;2023-07-16T12:36:24;4.50;;;3.97;;
7074;SDS011;3578;51.568;6.932;2023-07-16T12:38:51;6.20;;;3.90;;
7074;SDS011;3578;51.568;6.932;2023-07-16T12:41:18;7.50;;;3.80;;
7074;SDS011;3578;51.568;6.932;2023-07-16T12:43:45;3.90;;;3.47;;
7074;SDS011;3578;51.568;6.932;2023-07-16T12:46:14;4.73;;;3.30;;
7074;SDS011;3578;51.568;6.932;2023-07-16T12:48:41;6.13;;;3.43;;
7074;SDS011;3578;51.568;6.932;2023-07-16T12:51:09;7.00;;;3.50;;
7074;SDS011;3578;51.568;6.932;2023-07-16T12:53:36;6.07;;;3.50;;
7074;SDS011;3578;51.568;6.932;2023-07-16T12:56:03;5.60;;;3.40;;
7074;SDS011;3578;51.568;6.932;2023-07-16T12:58:30;6.33;;;3.30;;
7074;SDS011;3578;51.568;6.932;2023-07-16T13:00:57;4.17;;;3.20;;
7074;SDS011;3578;51.568;6.932;2023-07-16T13:03:26;5.67;;;3.37;;
7074;SDS011;3578;51.568;6.932;2023-07-16T13:05:53;4.30;;;3.20;;
7074;SDS011;3578;51.568;6.932;2023-07-16T13:08:20;4.03;;;3.60;;
7074;SDS011;3578;51.568;6.932;2023-07-16T13:10:47;9.07;;;2.80;;
7074;SDS011;3578;51.568;6.932;2023-07-16T13:13:14;5.83;;;3.70;;
7074;SDS011;3578;51.568;6.932;2023-07-16T13:15:40;4.03;;;2.83;;
7074;SDS011;3578;51.568;6.932;2023-07-16T13:18:09;7.30;;;3.70;;
7074;SDS011;3578;51.568;6.932;2023-07-16T13:20:38;4.10;;;3.10;;
7074;SDS011;3578;51.568;6.932;2023-07-16T13:23:05;5.17;;;2.90;;
7074;SDS011;3578;51.568;6.932;2023-07-16T13:25:33;3.00;;;2.80;;
7074;SDS011;3578;51.568;6.932;2023-07-16T13:28:01;7.53;;;3.67;;
7074;SDS011;3578;51.568;6.932;2023-07-16T13:30:28;3.77;;;3.00;;
7074;SDS011;3578;51.568;6.932;2023-07-16T13:32:55;3.50;;;3.20;;
7074;SDS011;3578;51.568;6.932;2023-07-16T13:35:22;3.13;;;2.83;;
7074;SDS011;3578;51.568;6.932;2023-07-16T13:37:50;3.37;;;3.03;;
7074;SDS011;3578;51.568;6.932;2023-07-16T13:40:17;5.47;;;2.57;;
7074;SDS011;3578;51.568;6.932;2023-07-16T13:42:45;3.60;;;3.30;;
7074;SDS011;3578;51.568;6.932;2023-07-16T13:45:12;5.77;;;3.47;;
7074;SDS011;3578;51.568;6.932;2023-07-16T13:47:39;6.93;;;3.67;;
7074;SDS011;3578;51.568;6.932;2023-07-16T13:50:07;2.80;;;2.53;;
7074;SDS011;3578;51.568;6.932;2023-07-16T13:52:35;4.10;;;3.43;;
7074;SDS011;3578;51.568;6.932;2023-07-16T13:55:04;5.27;;;3.30;;
7074;SDS011;3578;51.568;6.932;2023-07-16T13:57:32;2.73;;;2.53;;
7074;SDS011;3578;51.568;6.932;2023-07-16T13:59:59;5.73;;;3.10;;
7074;SDS011;3578;51.568;6.932;2023-07-16T14:02:26;3.63;;;2.80;;
7074;SDS011;3578;51.568;6.932;2023-07-16T14:04:54;3.10;;;2.80;;
7074;SDS011;3578;51.568;6.932;2023-07-16T14:07:21;3.63;;;3.33;;
7074;SDS011;3578;51.568;6.932;2023-07-16T14:09:48;5.10;;;2.67;;
7074;SDS011;3578;51.568;6.932;2023-07-16T14:12:17;4.47;;;3.10;;
7074;SDS011;3578;51.568;6.932;2023-07-16T14:14:44;4.00;;;2.97;;
7074;SDS011;3578;51.568;6.932;2023-07-16T14:17:11;7.90;;;3.10;;
7074;SDS011;3578;51.568;6.932;2023-07-16T14:19:37;5.00;;;3.00;;
7074;SDS011;3578;51.568;6.932;2023-07-16T14:22:04;5.63;;;2.80;;
7074;SDS011;3578;51.568;6.932;2023-07-16T14:24:32;3.47;;;2.30;;
7074;SDS011;3578;51.568;6.932;2023-07-16T14:26:58;5.47;;;2.87;;
7074;SDS011;3578;51.568;6.932;2023-07-16T14:29:28;4.10;;;3.13;;
7074;SDS011;3578;51.568;6.932;2023-07-16T14:31:55;2.73;;;2.47;;
7074;SDS011;3578;51.568;6.932;2023-07-16T14:34:22;3.57;;;2.70;;
7074;SDS011;3578;51.568;6.932;2023-07-16T14:36:49;2.90;;;2.60;;
7074;SDS011;3578;51.568;6.932;2023-07-16T14:39:16;5.20;;;2.80;;
7074;SDS011;3578;51.568;6.932;2023-07-16T14:41:43;4.67;;;3.00;;
7074;SDS011;3578;51.568;6.932;2023-07-16T14:44:10;4.57;;;2.40;;
7074;SDS011;3578;51.568;6.932;2023-07-16T14:46:38;3.03;;;2.50;;
7074;SDS011;3578;51.568;6.932;2023-07-16T14:49:06;9.53;;;2.40;;
7074;SDS011;3578;51.568;6.932;2023-07-16T14:51:33;4.20;;;2.57;;
7074;SDS011;3578;51.568;6.932;2023-07-16T14:54:04;3.13;;;2.43;;
7074;SDS011;3578;51.568;6.932;2023-07-16T14:56:32;5.07;;;2.70;;
7074;SDS011;3578;51.568;6.932;2023-07-16T14:58:59;3.00;;;2.20;;
7074;SDS011;3578;51.568;6.932;2023-07-16T15:01:26;4.70;;;2.90;;
7074;SDS011;3578;51.568;6.932;2023-07-16T15:03:54;1.83;;;1.73;;
7074;SDS011;3578;51.568;6.932;2023-07-16T15:06:21;4.83;;;2.37;;
7074;SDS011;3578;51.568;6.932;2023-07-16T15:08:49;4.17;;;2.27;;
7074;SDS011;3578;51.568;6.932;2023-07-16T15:11:16;2.30;;;1.97;;
7074;SDS011;3578;51.568;6.932;2023-07-16T15:13:43;7.10;;;2.63;;
7074;SDS011;3578;51.568;6.932;2023-07-16T15:16:10;2.90;;;2.60;;
7074;SDS011;3578;51.568;6.932;2023-07-16T15:18:38;4.30;;;2.70;;